sensor_id;sensor_type;location;lat;lon;timestamp;P1;durP1;ratioP1;P2;durP2;ratioP2
63370;SDS011;49504;48.336;14.472;2022-12-29T05:31:33;4.45;;;2.10;;
63370;SDS011;49504;48.336;14.472;2022-12-29T05:36:34;5.18;;;2.10;;
63370;SDS011;49504;48.336;14.472;2022-12-29T05:41:35;4.07;;;2.13;;
63370;SDS011;49504;48.336;14.472;2022-12-29T05:46:37;3.95;;;2.20;;
63370;SDS011;49504;48.336;14.472;2022-12-29T05:51:38;4.10;;;1.95;;
63370;SDS011;49504;48.336;14.472;2022-12-29T05:56:39;4.03;;;2.10;;
63370;SDS011;49504;48.336;14.472;2022-12-29T06:01:42;3.47;;;1.95;;
63370;SDS011;49504;48.336;14.472;2022-12-29T06:06:44;4.30;;;2.03;;
63370;SDS011;49504;48.336;14.472;2022-12-29T06:11:45;4.10;;;1.85;;
63370;SDS011;49504;48.336;14.472;2022-12-29T06:16:47;4.53;;;1.95;;
63370;SDS011;49504;48.336;14.472;2022-12-29T06:21:48;3.50;;;1.90;;
63370;SDS011;49504;48.336;14.472;2022-12-29T06:26:49;4.20;;;1.90;;
63370;SDS011;49504;48.336;14.472;2022-12-29T06:31:51;3.80;;;2.00;;
63370;SDS011;49504;48.336;14.472;2022-12-29T06:36:52;4.38;;;1.88;;
63370;SDS011;49504;48.336;14.472;2022-12-29T06:41:54;3.88;;;1.58;;
63370;SDS011;49504;48.336;14.472;2022-12-29T06:46:57;4.10;;;1.90;;
63370;SDS011;49504;48.336;14.472;2022-12-29T06:51:58;3.75;;;1.90;;
63370;SDS011;49504;48.336;14.472;2022-12-29T06:56:59;4.10;;;1.88;;
63370;SDS011;49504;48.336;14.472;2022-12-29T07:02:01;4.00;;;2.10;;
63370;SDS011;49504;48.336;14.472;2022-12-29T07:07:02;3.88;;;1.90;;
63370;SDS011;49504;48.336;14.472;2022-12-29T07:12:04;4.82;;;2.33;;
63370;SDS011;49504;48.336;14.472;2022-12-29T07:17:07;19.25;;;9.07;;
63370;SDS011;49504;48.336;14.472;2022-12-29T07:22:09;16.52;;;10.20;;
63370;SDS011;49504;48.336;14.472;2022-12-29T07:27:10;13.65;;;7.43;;
63370;SDS011;49504;48.336;14.472;2022-12-29T07:32:12;19.27;;;11.35;;
63370;SDS011;49504;48.336;14.472;2022-12-29T07:37:14;24.85;;;14.00;;
63370;SDS011;49504;48.336;14.472;2022-12-29T07:42:15;21.98;;;12.77;;
63370;SDS011;49504;48.336;14.472;2022-12-29T07:47:18;24.15;;;12.13;;
63370;SDS011;49504;48.336;14.472;2022-12-29T07:52:19;18.98;;;11.07;;
63370;SDS011;49504;48.336;14.472;2022-12-29T07:57:20;20.92;;;11.10;;
63370;SDS011;49504;48.336;14.472;2022-12-29T08:02:23;20.40;;;11.10;;
63370;SDS011;49504;48.336;14.472;2022-12-29T08:07:24;19.27;;;10.85;;
63370;SDS011;49504;48.336;14.472;2022-12-29T08:12:26;18.60;;;11.13;;
63370;SDS011;49504;48.336;14.472;2022-12-29T08:17:30;16.85;;;10.00;;
63370;SDS011;49504;48.336;14.472;2022-12-29T08:22:31;16.30;;;10.02;;
63370;SDS011;49504;48.336;14.472;2022-12-29T08:27:32;16.27;;;10.32;;
63370;SDS011;49504;48.336;14.472;2022-12-29T08:32:35;15.15;;;8.20;;
63370;SDS011;49504;48.336;14.472;2022-12-29T08:37:36;14.07;;;8.45;;
63370;SDS011;49504;48.336;14.472;2022-12-29T08:42:37;15.65;;;8.48;;
63370;SDS011;49504;48.336;14.472;2022-12-29T08:47:39;14.13;;;7.90;;
63370;SDS011;49504;48.336;14.472;2022-12-29T08:52:40;13.25;;;7.70;;
63370;SDS011;49504;48.336;14.472;2022-12-29T08:57:41;14.63;;;7.80;;
63370;SDS011;49504;48.336;14.472;2022-12-29T09:02:44;14.68;;;8.15;;
63370;SDS011;49504;48.336;14.472;2022-12-29T09:07:45;13.18;;;7.70;;
63370;SDS011;49504;48.336;14.472;2022-12-29T09:12:46;12.68;;;6.85;;
63370;SDS011;49504;48.336;14.472;2022-12-29T09:17:48;11.43;;;6.68;;
63370;SDS011;49504;48.336;14.472;2022-12-29T09:22:49;12.40;;;7.05;;
63370;SDS011;49504;48.336;14.472;2022-12-29T09:27:50;14.55;;;11.68;;
63370;SDS011;49504;48.336;14.472;2022-12-29T09:32:53;11.60;;;7.72;;
63370;SDS011;49504;48.336;14.472;2022-12-29T09:37:54;11.25;;;7.38;;
63370;SDS011;49504;48.336;14.472;2022-12-29T09:43:01;12.80;;;7.50;;
63370;SDS011;49504;48.336;14.472;2022-12-29T09:48:27;10.18;;;6.70;;
63370;SDS011;49504;48.336;14.472;2022-12-29T09:53:35;12.98;;;7.72;;
63370;SDS011;49504;48.336;14.472;2022-12-29T09:58:40;13.65;;;8.48;;
63370;SDS011;49504;48.336;14.472;2022-12-29T10:08:52;14.38;;;9.32;;
63370;SDS011;49504;48.336;14.472;2022-12-29T10:14:06;12.13;;;7.90;;
63370;SDS011;49504;48.336;14.472;2022-12-29T10:24:52;10.63;;;7.40;;
63370;SDS011;49504;48.336;14.472;2022-12-29T10:29:56;13.73;;;8.60;;
63370;SDS011;49504;48.336;14.472;2022-12-29T10:35:03;12.50;;;7.85;;
63370;SDS011;49504;48.336;14.472;2022-12-29T10:40:15;10.00;;;7.53;;
63370;SDS011;49504;48.336;14.472;2022-12-29T10:45:24;12.73;;;6.65;;
63370;SDS011;49504;48.336;14.472;2022-12-29T10:50:31;11.43;;;6.85;;
63370;SDS011;49504;48.336;14.472;2022-12-29T10:55:33;8.95;;;6.78;;
63370;SDS011;49504;48.336;14.472;2022-12-29T11:00:36;10.23;;;6.50;;
63370;SDS011;49504;48.336;14.472;2022-12-29T11:05:39;10.30;;;5.80;;
63370;SDS011;49504;48.336;14.472;2022-12-29T11:10:46;10.23;;;5.75;;
63370;SDS011;49504;48.336;14.472;2022-12-29T11:15:57;8.63;;;6.25;;
63370;SDS011;49504;48.336;14.472;2022-12-29T11:21:00;8.38;;;5.72;;
63370;SDS011;49504;48.336;14.472;2022-12-29T11:26:15;10.60;;;4.97;;
63370;SDS011;49504;48.336;14.472;2022-12-29T11:31:20;8.02;;;5.25;;
63370;SDS011;49504;48.336;14.472;2022-12-29T11:36:23;8.23;;;5.63;;
63370;SDS011;49504;48.336;14.472;2022-12-29T11:41:25;7.95;;;5.25;;
63370;SDS011;49504;48.336;14.472;2022-12-29T11:46:29;7.82;;;4.95;;
63370;SDS011;49504;48.336;14.472;2022-12-29T11:51:36;8.13;;;5.50;;
63370;SDS011;49504;48.336;14.472;2022-12-29T11:56:44;7.93;;;5.25;;
63370;SDS011;49504;48.336;14.472;2022-12-29T12:01:46;7.72;;;5.45;;
63370;SDS011;49504;48.336;14.472;2022-12-29T12:06:53;7.28;;;5.35;;
63370;SDS011;49504;48.336;14.472;2022-12-29T13:00:29;6.25;;;3.90;;
63370;SDS011;49504;48.336;14.472;2022-12-29T13:05:45;7.07;;;3.70;;
63370;SDS011;49504;48.336;14.472;2022-12-29T13:11:06;7.82;;;3.30;;
63370;SDS011;49504;48.336;14.472;2022-12-29T13:16:17;6.40;;;3.55;;
63370;SDS011;49504;48.336;14.472;2022-12-29T13:21:30;6.10;;;2.90;;
63370;SDS011;49504;48.336;14.472;2022-12-29T13:26:45;6.23;;;3.10;;
63370;SDS011;49504;48.336;14.472;2022-12-29T13:31:52;6.55;;;3.33;;
63370;SDS011;49504;48.336;14.472;2022-12-29T13:37:11;6.65;;;3.28;;
63370;SDS011;49504;48.336;14.472;2022-12-29T13:42:18;6.40;;;3.00;;
63370;SDS011;49504;48.336;14.472;2022-12-29T13:47:25;5.07;;;2.90;;
63370;SDS011;49504;48.336;14.472;2022-12-29T13:52:32;5.22;;;3.10;;
63370;SDS011;49504;48.336;14.472;2022-12-29T13:57:44;6.68;;;3.28;;
63370;SDS011;49504;48.336;14.472;2022-12-29T14:03:01;6.07;;;2.97;;
63370;SDS011;49504;48.336;14.472;2022-12-29T14:08:24;6.07;;;3.13;;
63370;SDS011;49504;48.336;14.472;2022-12-29T14:13:25;6.15;;;2.70;;
63370;SDS011;49504;48.336;14.472;2022-12-29T14:18:28;5.03;;;2.80;;
63370;SDS011;49504;48.336;14.472;2022-12-29T14:23:36;5.53;;;2.90;;
63370;SDS011;49504;48.336;14.472;2022-12-29T14:28:39;4.85;;;2.88;;
63370;SDS011;49504;48.336;14.472;2022-12-29T14:34:15;4.88;;;2.67;;
63370;SDS011;49504;48.336;14.472;2022-12-29T14:39:39;4.60;;;2.65;;
63370;SDS011;49504;48.336;14.472;2022-12-29T14:44:45;4.53;;;2.50;;
63370;SDS011;49504;48.336;14.472;2022-12-29T14:49:52;4.82;;;2.92;;
63370;SDS011;49504;48.336;14.472;2022-12-29T14:54:57;4.63;;;2.42;;
63370;SDS011;49504;48.336;14.472;2022-12-29T15:00:31;5.22;;;2.75;;
63370;SDS011;49504;48.336;14.472;2022-12-29T15:05:37;5.25;;;2.60;;
63370;SDS011;49504;48.336;14.472;2022-12-29T15:10:47;5.13;;;2.83;;
63370;SDS011;49504;48.336;14.472;2022-12-29T15:20:57;4.88;;;2.58;;
63370;SDS011;49504;48.336;14.472;2022-12-29T15:26:02;7.15;;;3.25;;
63370;SDS011;49504;48.336;14.472;2022-12-29T15:31:06;5.20;;;2.88;;
63370;SDS011;49504;48.336;14.472;2022-12-29T15:36:18;5.95;;;2.90;;
63370;SDS011;49504;48.336;14.472;2022-12-29T15:41:25;7.15;;;2.90;;
63370;SDS011;49504;48.336;14.472;2022-12-29T15:46:34;5.43;;;2.70;;
63370;SDS011;49504;48.336;14.472;2022-12-29T15:51:37;4.68;;;2.67;;
63370;SDS011;49504;48.336;14.472;2022-12-29T15:56:39;6.82;;;2.90;;
63370;SDS011;49504;48.336;14.472;2022-12-29T16:01:41;5.00;;;2.42;;
63370;SDS011;49504;48.336;14.472;2022-12-29T16:06:47;21.85;;;8.32;;
63370;SDS011;49504;48.336;14.472;2022-12-29T16:11:56;46.53;;;18.88;;
63370;SDS011;49504;48.336;14.472;2022-12-29T16:17:01;32.47;;;13.20;;
63370;SDS011;49504;48.336;14.472;2022-12-29T16:22:09;28.33;;;11.02;;
63370;SDS011;49504;48.336;14.472;2022-12-29T16:27:18;20.15;;;9.10;;
63370;SDS011;49504;48.336;14.472;2022-12-29T16:32:23;18.53;;;8.30;;
63370;SDS011;49504;48.336;14.472;2022-12-29T16:37:30;16.92;;;7.63;;
63370;SDS011;49504;48.336;14.472;2022-12-29T16:42:33;17.48;;;7.80;;
63370;SDS011;49504;48.336;14.472;2022-12-29T16:47:35;14.80;;;6.60;;
63370;SDS011;49504;48.336;14.472;2022-12-29T16:52:37;14.55;;;6.30;;
63370;SDS011;49504;48.336;14.472;2022-12-29T16:57:38;14.05;;;6.57;;
63370;SDS011;49504;48.336;14.472;2022-12-29T17:02:44;12.95;;;6.18;;
63370;SDS011;49504;48.336;14.472;2022-12-29T17:07:46;13.32;;;5.82;;
63370;SDS011;49504;48.336;14.472;2022-12-29T17:12:48;13.65;;;7.15;;
63370;SDS011;49504;48.336;14.472;2022-12-29T17:17:49;12.05;;;6.18;;
63370;SDS011;49504;48.336;14.472;2022-12-29T17:22:55;13.27;;;6.30;;
63370;SDS011;49504;48.336;14.472;2022-12-29T17:27:57;12.52;;;6.05;;
63370;SDS011;49504;48.336;14.472;2022-12-29T17:33:02;14.32;;;6.35;;
63370;SDS011;49504;48.336;14.472;2022-12-29T17:38:12;12.43;;;5.95;;
63370;SDS011;49504;48.336;14.472;2022-12-29T17:43:18;13.20;;;5.80;;
63370;SDS011;49504;48.336;14.472;2022-12-29T17:48:20;12.65;;;5.90;;
63370;SDS011;49504;48.336;14.472;2022-12-29T17:53:23;11.88;;;5.88;;
63370;SDS011;49504;48.336;14.472;2022-12-29T17:58:28;11.05;;;6.20;;
63370;SDS011;49504;48.336;14.472;2022-12-29T18:03:32;12.88;;;6.47;;
63370;SDS011;49504;48.336;14.472;2022-12-29T18:08:36;11.38;;;5.93;;
63370;SDS011;49504;48.336;14.472;2022-12-29T18:13:39;11.43;;;5.35;;
63370;SDS011;49504;48.336;14.472;2022-12-29T18:18:40;9.35;;;5.28;;
63370;SDS011;49504;48.336;14.472;2022-12-29T18:23:42;9.80;;;4.72;;
63370;SDS011;49504;48.336;14.472;2022-12-29T18:28:44;11.65;;;5.72;;
63370;SDS011;49504;48.336;14.472;2022-12-29T18:33:45;10.63;;;5.22;;
63370;SDS011;49504;48.336;14.472;2022-12-29T18:38:48;11.45;;;5.97;;
63370;SDS011;49504;48.336;14.472;2022-12-29T18:43:49;9.05;;;4.70;;
63370;SDS011;49504;48.336;14.472;2022-12-29T18:48:51;12.18;;;5.28;;
63370;SDS011;49504;48.336;14.472;2022-12-29T18:53:54;10.68;;;5.50;;
63370;SDS011;49504;48.336;14.472;2022-12-29T18:58:55;11.52;;;5.10;;
63370;SDS011;49504;48.336;14.472;2022-12-29T19:03:56;9.15;;;5.20;;
63370;SDS011;49504;48.336;14.472;2022-12-29T19:08:58;8.73;;;4.38;;
63370;SDS011;49504;48.336;14.472;2022-12-29T19:13:59;10.55;;;5.00;;
63370;SDS011;49504;48.336;14.472;2022-12-29T19:19:00;8.48;;;4.70;;
63370;SDS011;49504;48.336;14.472;2022-12-29T19:24:03;8.90;;;4.10;;
63370;SDS011;49504;48.336;14.472;2022-12-29T19:29:04;7.78;;;4.07;;
63370;SDS011;49504;48.336;14.472;2022-12-29T19:34:08;8.02;;;4.07;;
63370;SDS011;49504;48.336;14.472;2022-12-29T19:39:13;8.10;;;4.00;;
63370;SDS011;49504;48.336;14.472;2022-12-29T19:44:14;7.20;;;4.18;;
63370;SDS011;49504;48.336;14.472;2022-12-29T19:49:15;7.75;;;3.95;;
63370;SDS011;49504;48.336;14.472;2022-12-29T19:54:18;7.30;;;3.97;;
63370;SDS011;49504;48.336;14.472;2022-12-29T19:59:18;6.85;;;4.35;;
63370;SDS011;49504;48.336;14.472;2022-12-29T20:04:19;8.40;;;4.65;;
63370;SDS011;49504;48.336;14.472;2022-12-29T20:09:22;6.28;;;3.83;;
63370;SDS011;49504;48.336;14.472;2022-12-29T20:14:23;8.13;;;4.28;;
63370;SDS011;49504;48.336;14.472;2022-12-29T20:23:25;6.90;;;4.00;;
63370;SDS011;49504;48.336;14.472;2022-12-29T20:28:27;8.05;;;3.88;;
63370;SDS011;49504;48.336;14.472;2022-12-29T20:33:29;7.43;;;4.05;;
63370;SDS011;49504;48.336;14.472;2022-12-29T20:38:32;6.80;;;3.65;;
63370;SDS011;49504;48.336;14.472;2022-12-29T20:43:34;6.88;;;3.78;;
63370;SDS011;49504;48.336;14.472;2022-12-29T20:48:35;6.85;;;3.53;;
63370;SDS011;49504;48.336;14.472;2022-12-29T20:53:37;6.72;;;3.60;;
63370;SDS011;49504;48.336;14.472;2022-12-29T20:58:39;7.43;;;3.80;;
63370;SDS011;49504;48.336;14.472;2022-12-29T21:03:40;7.57;;;3.92;;
63370;SDS011;49504;48.336;14.472;2022-12-29T21:08:42;6.85;;;3.90;;
63370;SDS011;49504;48.336;14.472;2022-12-29T21:13:43;6.32;;;3.65;;
63370;SDS011;49504;48.336;14.472;2022-12-29T21:18:44;7.00;;;4.00;;
63370;SDS011;49504;48.336;14.472;2022-12-29T21:23:47;6.82;;;3.30;;
63370;SDS011;49504;48.336;14.472;2022-12-29T21:28:48;5.88;;;3.47;;
63370;SDS011;49504;48.336;14.472;2022-12-29T21:33:49;6.93;;;3.72;;
63370;SDS011;49504;48.336;14.472;2022-12-29T21:41:12;6.22;;;3.17;;
63370;SDS011;49504;48.336;14.472;2022-12-29T21:46:15;7.60;;;3.88;;
63370;SDS011;49504;48.336;14.472;2022-12-29T21:51:16;6.30;;;3.60;;
63370;SDS011;49504;48.336;14.472;2022-12-29T21:58:08;8.23;;;3.63;;
63370;SDS011;49504;48.336;14.472;2022-12-29T22:03:09;6.55;;;3.78;;
63370;SDS011;49504;48.336;14.472;2022-12-29T22:08:10;6.68;;;3.35;;
63370;SDS011;49504;48.336;14.472;2022-12-29T22:13:12;5.55;;;3.28;;
63370;SDS011;49504;48.336;14.472;2022-12-29T22:18:13;6.70;;;3.60;;
63370;SDS011;49504;48.336;14.472;2022-12-29T22:23:14;5.60;;;3.35;;
63370;SDS011;49504;48.336;14.472;2022-12-29T22:28:16;5.28;;;2.78;;
63370;SDS011;49504;48.336;14.472;2022-12-29T22:33:17;5.47;;;3.38;;
63370;SDS011;49504;48.336;14.472;2022-12-29T22:38:18;6.70;;;3.30;;
63370;SDS011;49504;48.336;14.472;2022-12-29T22:43:21;4.97;;;3.10;;
63370;SDS011;49504;48.336;14.472;2022-12-29T22:48:22;6.70;;;3.22;;
63370;SDS011;49504;48.336;14.472;2022-12-29T22:53:23;6.18;;;3.50;;
63370;SDS011;49504;48.336;14.472;2022-12-29T22:58:25;6.50;;;3.40;;
63370;SDS011;49504;48.336;14.472;2022-12-29T23:03:26;5.80;;;3.70;;
63370;SDS011;49504;48.336;14.472;2022-12-29T23:08:29;5.95;;;3.10;;
63370;SDS011;49504;48.336;14.472;2022-12-29T23:13:34;5.90;;;2.72;;
63370;SDS011;49504;48.336;14.472;2022-12-29T23:18:35;6.13;;;2.90;;
63370;SDS011;49504;48.336;14.472;2022-12-29T23:23:36;5.22;;;2.97;;
63370;SDS011;49504;48.336;14.472;2022-12-29T23:28:39;5.00;;;3.00;;
63370;SDS011;49504;48.336;14.472;2022-12-29T23:38:20;5.18;;;2.67;;
63370;SDS011;49504;48.336;14.472;2022-12-29T23:43:21;5.40;;;2.95;;
63370;SDS011;49504;48.336;14.472;2022-12-29T23:48:22;5.38;;;2.92;;
63370;SDS011;49504;48.336;14.472;2022-12-29T23:53:25;5.50;;;2.80;;
63370;SDS011;49504;48.336;14.472;2022-12-29T23:58:28;5.47;;;3.25;;
